ADDS METAR Data INFO
IDs: Format: Raw Decoded Include TAF

Data at: 2011 UTC 19 Oct 2017

KBUY 191954Z AUTO VRB04KT 10SM CLR 24/04 A3022 RMK AO2 SLP232 T02390044
KBUY 191854Z AUTO 21003KT 10SM CLR 23/04 A3024 RMK AO2 SLP237 T02280044
KBUY 191754Z AUTO VRB05KT 10SM CLR 23/04 A3026 RMK AO2 SLP244 T02280039 10228 20022 58023
KBUY 191654Z AUTO VRB03KT 10SM CLR 21/05 A3028 RMK AO2 SLP253 T02110050
KBUY 191554Z AUTO VRB03KT 10SM CLR 19/05 A3031 RMK AO2 SLP262 T01940050
KBUY 191454Z AUTO 17003KT 10SM CLR 17/09 A3033 RMK AO2 SLP269 T01670089 50009
KBUY 191354Z AUTO 00000KT 10SM CLR 13/08 A3033 RMK AO2 SLP270 T01330083
KBUY 191254Z AUTO 23003KT 10SM CLR 07/07 A3032 RMK AO2 SLP267 T00720072
KBUY 191154Z AUTO 00000KT 10SM CLR 02/02 A3030 RMK AO2 SLP262 T00220022 10056 20017 50003
KBUY 191054Z AUTO 00000KT 10SM CLR 03/02 A3030 RMK AO2 SLP261 T00280022
KBUY 190954Z AUTO 00000KT 10SM CLR 04/03 A3030 RMK AO2 SLP260 T00440033 $
KBUY 190854Z AUTO 00000KT 10SM CLR 03/02 A3029 RMK AO2 SLP257 T00280022 56007 $
KBUY 190754Z AUTO 00000KT 10SM CLR 05/04 A3029 RMK AO2 SLP257 T00500044 $
KBUY 190654Z AUTO 00000KT 10SM CLR 04/04 A3031 RMK AO2 SLP262 T00440039 $
KBUY 190554Z AUTO 00000KT 10SM CLR 06/05 A3032 RMK AO2 SLP264 T00560050 10122 20050 58003 $
KBUY 190454Z AUTO 00000KT 10SM CLR 06/05 A3032 RMK AO2 SLP266 T00610050 402170011 $
KBUY 190354Z AUTO 00000KT 10SM CLR 06/05 A3033 RMK AO2 SLP269 T00610050 $
KBUY 190254Z AUTO 00000KT 10SM 07/06 A3033 RMK AO2 SLP269 T00720056 55000 $
KBUY 190154Z AUTO 00000KT 10SM CLR 08/06 A3033 RMK AO2 SLP270 T00780056
KBUY 190054Z AUTO 00000KT 10SM CLR 09/06 A3032 RMK AO2 SLP268 T00940061
KBUY 182354Z AUTO 00000KT 10SM CLR 12/06 A3033 RMK AO2 SLP271 T01220061 10217 20117 53005
KBUY 182254Z AUTO 13003KT 10SM CLR 17/03 A3031 RMK AO2 SLP265 T01670028
KBUY 182154Z AUTO 06003KT 10SM CLR 20/03 A3030 RMK AO2 SLP261 T02000028
KBUY 182054Z AUTO VRB03KT 10SM CLR 21/01 A3031 RMK AO2 SLP263 T02110011 56014
KBUY 181954Z AUTO VRB04KT 10SM CLR 22/02 A3032 RMK AO2 SLP265 T02170017
KBUY 181854Z AUTO 04006KT 10SM CLR 21/02 A3034 RMK AO2 SLP271 T02110017
KBUY 181754Z AUTO 15005KT 10SM CLR 19/03 A3035 RMK AO2 SLP277 T01940028 10194 20028 58019
KBUY 181654Z AUTO 05005KT 10SM CLR 18/04 A3039 RMK AO2 SLP289 T01830039
KBUY 181554Z AUTO 01006KT 10SM CLR 17/04 A3041 RMK AO2 SLP296 T01720039
KBUY 181454Z AUTO 00000KT 10SM CLR 14/06 A3041 RMK AO2 SLP297 T01440061 51012
KBUY 181354Z AUTO 00000KT 10SM CLR 12/07 A3041 RMK AO2 SLP297 T01170067
KBUY 181254Z AUTO 00000KT 10SM CLR 08/06 A3039 RMK AO2 SLP291 T00780061
KBUY 181154Z AUTO 00000KT 10SM CLR 03/02 A3037 RMK AO2 SLP286 T00280022 10056 20011 51013
KBUY 181054Z AUTO 00000KT 10SM CLR 01/01 A3036 RMK AO2 SLP283 T00110011
KBUY 180954Z AUTO 00000KT 10SM CLR 02/02 A3035 RMK AO2 SLP277 T00220017
KBUY 180854Z AUTO 00000KT 10SM CLR 03/02 A3033 RMK AO2 SLP271 T00330022 51002